sensor_id;sensor_type;location;lat;lon;timestamp;pressure;altitude;pressure_sealevel;temperature
31921;BMP280;66485;52.128;4.436;2023-07-29T00:01:34;100809.25;;;24.74
31921;BMP280;66485;52.128;4.436;2023-07-29T00:04:00;100807.56;;;24.77
31921;BMP280;66485;52.128;4.436;2023-07-29T00:06:26;100797.38;;;24.77
31921;BMP280;66485;52.128;4.436;2023-07-29T00:08:52;100797.38;;;24.77
31921;BMP280;66485;52.128;4.436;2023-07-29T00:11:17;100790.84;;;24.75
31921;BMP280;66485;52.128;4.436;2023-07-29T00:13:43;100794.34;;;24.75
31921;BMP280;66485;52.128;4.436;2023-07-29T00:16:08;100789.81;;;24.72
31921;BMP280;66485;52.128;4.436;2023-07-29T00:18:33;100791.59;;;24.75
31921;BMP280;66485;52.128;4.436;2023-07-29T00:20:59;100794.47;;;24.81
31921;BMP280;66485;52.128;4.436;2023-07-29T00:23:24;100794.47;;;24.81
31921;BMP280;66485;52.128;4.436;2023-07-29T00:25:50;100795.09;;;24.76
31921;BMP280;66485;52.128;4.436;2023-07-29T00:28:15;100795.09;;;24.76
31921;BMP280;66485;52.128;4.436;2023-07-29T00:30:40;100789.81;;;24.72
31921;BMP280;66485;52.128;4.436;2023-07-29T00:33:06;100789.81;;;24.72
31921;BMP280;66485;52.128;4.436;2023-07-29T00:35:31;100793.00;;;24.71
31921;BMP280;66485;52.128;4.436;2023-07-29T00:37:57;100784.50;;;24.69
31921;BMP280;66485;52.128;4.436;2023-07-29T00:40:22;100785.53;;;24.71
31921;BMP280;66485;52.128;4.436;2023-07-29T00:42:49;100785.53;;;24.71
31921;BMP280;66485;52.128;4.436;2023-07-29T00:45:15;100778.84;;;24.72
31921;BMP280;66485;52.128;4.436;2023-07-29T00:47:41;100778.84;;;24.72
31921;BMP280;66485;52.128;4.436;2023-07-29T00:50:08;100787.66;;;24.67
31921;BMP280;66485;52.128;4.436;2023-07-29T00:52:34;100781.75;;;24.69
31921;BMP280;66485;52.128;4.436;2023-07-29T00:54:59;100780.06;;;24.71
31921;BMP280;66485;52.128;4.436;2023-07-29T00:57:25;100780.81;;;24.72
31921;BMP280;66485;52.128;4.436;2023-07-29T00:59:51;100780.81;;;24.72
31921;BMP280;66485;52.128;4.436;2023-07-29T01:02:17;100773.66;;;24.74
31921;BMP280;66485;52.128;4.436;2023-07-29T01:04:43;100766.38;;;24.71
31921;BMP280;66485;52.128;4.436;2023-07-29T01:10:00;100769.09;;;24.71
31921;BMP280;66485;52.128;4.436;2023-07-29T01:17:43;100761.22;;;24.64
31921;BMP280;66485;52.128;4.436;2023-07-29T01:20:14;100761.22;;;24.64
31921;BMP280;66485;52.128;4.436;2023-07-29T01:22:40;100756.94;;;24.63
31921;BMP280;66485;52.128;4.436;2023-07-29T01:25:06;100752.06;;;24.67
31921;BMP280;66485;52.128;4.436;2023-07-29T01:27:32;100752.72;;;24.62
31921;BMP280;66485;52.128;4.436;2023-07-29T01:29:58;100752.72;;;24.62
31921;BMP280;66485;52.128;4.436;2023-07-29T01:35:19;100748.28;;;24.65
31921;BMP280;66485;52.128;4.436;2023-07-29T01:37:49;100760.44;;;24.63
31921;BMP280;66485;52.128;4.436;2023-07-29T01:40:17;100760.44;;;24.63
31921;BMP280;66485;52.128;4.436;2023-07-29T01:42:43;100745.41;;;24.59
31921;BMP280;66485;52.128;4.436;2023-07-29T01:45:08;100751.47;;;24.63
31921;BMP280;66485;52.128;4.436;2023-07-29T01:47:34;100751.47;;;24.63
31921;BMP280;66485;52.128;4.436;2023-07-29T01:49:59;100746.16;;;24.59
31921;BMP280;66485;52.128;4.436;2023-07-29T01:52:25;100740.81;;;24.65
31921;BMP280;66485;52.128;4.436;2023-07-29T01:54:50;100736.47;;;24.58
31921;BMP280;66485;52.128;4.436;2023-07-29T01:57:15;100734.94;;;24.57
31921;BMP280;66485;52.128;4.436;2023-07-29T01:59:41;100732.19;;;24.57
31921;BMP280;66485;52.128;4.436;2023-07-29T02:02:06;100735.34;;;24.56
31921;BMP280;66485;52.128;4.436;2023-07-29T02:04:32;100741.47;;;24.60
31921;BMP280;66485;52.128;4.436;2023-07-29T02:06:57;100733.25;;;24.60
31921;BMP280;66485;52.128;4.436;2023-07-29T02:09:22;100731.00;;;24.58
31921;BMP280;66485;52.128;4.436;2023-07-29T02:11:47;100731.72;;;24.59
31921;BMP280;66485;52.128;4.436;2023-07-29T02:14:13;100731.72;;;24.59
31921;BMP280;66485;52.128;4.436;2023-07-29T02:16:38;100726.25;;;24.59
31921;BMP280;66485;52.128;4.436;2023-07-29T02:19:04;100723.81;;;24.61
31921;BMP280;66485;52.128;4.436;2023-07-29T02:21:29;100725.34;;;24.62
31921;BMP280;66485;52.128;4.436;2023-07-29T02:23:55;100720.47;;;24.57
31921;BMP280;66485;52.128;4.436;2023-07-29T02:26:20;100719.28;;;24.58
31921;BMP280;66485;52.128;4.436;2023-07-29T02:28:45;100719.28;;;24.58
31921;BMP280;66485;52.128;4.436;2023-07-29T02:31:15;100719.28;;;24.58
31921;BMP280;66485;52.128;4.436;2023-07-29T02:33:40;100722.44;;;24.56
31921;BMP280;66485;52.128;4.436;2023-07-29T02:36:06;100716.19;;;24.56
31921;BMP280;66485;52.128;4.436;2023-07-29T02:38:31;100719.28;;;24.58
31921;BMP280;66485;52.128;4.436;2023-07-29T02:40:57;100707.97;;;24.56
31921;BMP280;66485;52.128;4.436;2023-07-29T02:43:22;100706.47;;;24.55
31921;BMP280;66485;52.128;4.436;2023-07-29T02:45:47;100702.06;;;24.57
31921;BMP280;66485;52.128;4.436;2023-07-29T02:48:13;100702.06;;;24.57
31921;BMP280;66485;52.128;4.436;2023-07-29T02:50:38;100693.25;;;24.53
31921;BMP280;66485;52.128;4.436;2023-07-29T02:53:04;100690.38;;;24.57
31921;BMP280;66485;52.128;4.436;2023-07-29T02:55:29;100690.38;;;24.57
31921;BMP280;66485;52.128;4.436;2023-07-29T02:57:54;100693.53;;;24.55
31921;BMP280;66485;52.128;4.436;2023-07-29T03:00:20;100699.75;;;24.56
31921;BMP280;66485;52.128;4.436;2023-07-29T03:02:45;100694.94;;;24.51
31921;BMP280;66485;52.128;4.436;2023-07-29T03:05:11;100694.94;;;24.51
31921;BMP280;66485;52.128;4.436;2023-07-29T03:07:36;100697.50;;;24.54
31921;BMP280;66485;52.128;4.436;2023-07-29T03:10:01;100699.47;;;24.54
31921;BMP280;66485;52.128;4.436;2023-07-29T03:12:27;100698.63;;;24.48
31921;BMP280;66485;52.128;4.436;2023-07-29T03:14:52;100693.72;;;24.52
31921;BMP280;66485;52.128;4.436;2023-07-29T03:17:17;100701.63;;;24.50
31921;BMP280;66485;52.128;4.436;2023-07-29T03:19:43;100711.38;;;24.51
31921;BMP280;66485;52.128;4.436;2023-07-29T03:22:08;100718.81;;;24.50
31921;BMP280;66485;52.128;4.436;2023-07-29T03:24:33;100712.59;;;24.50
31921;BMP280;66485;52.128;4.436;2023-07-29T03:26:59;100712.59;;;24.50
31921;BMP280;66485;52.128;4.436;2023-07-29T03:29:24;100710.47;;;24.45
31921;BMP280;66485;52.128;4.436;2023-07-29T03:31:49;100710.47;;;24.45
31921;BMP280;66485;52.128;4.436;2023-07-29T03:34:15;100706.97;;;24.44
31921;BMP280;66485;52.128;4.436;2023-07-29T03:36:40;100699.84;;;24.47
31921;BMP280;66485;52.128;4.436;2023-07-29T03:39:06;100699.19;;;24.52
31921;BMP280;66485;52.128;4.436;2023-07-29T03:41:33;100699.19;;;24.52
31921;BMP280;66485;52.128;4.436;2023-07-29T03:43:58;100713.34;;;24.50
31921;BMP280;66485;52.128;4.436;2023-07-29T03:46:24;100713.34;;;24.50
31921;BMP280;66485;52.128;4.436;2023-07-29T03:48:50;100722.78;;;24.49
31921;BMP280;66485;52.128;4.436;2023-07-29T03:51:15;100719.28;;;24.49
31921;BMP280;66485;52.128;4.436;2023-07-29T03:53:40;100719.28;;;24.49
31921;BMP280;66485;52.128;4.436;2023-07-29T03:56:07;100708.06;;;24.47
31921;BMP280;66485;52.128;4.436;2023-07-29T03:58:32;100708.06;;;24.47
31921;BMP280;66485;52.128;4.436;2023-07-29T04:00:57;100707.28;;;24.46
31921;BMP280;66485;52.128;4.436;2023-07-29T04:03:23;100707.28;;;24.46
31921;BMP280;66485;52.128;4.436;2023-07-29T04:05:48;100702.91;;;24.40
31921;BMP280;66485;52.128;4.436;2023-07-29T04:08:14;100716.28;;;24.47
31921;BMP280;66485;52.128;4.436;2023-07-29T04:10:39;100706.22;;;24.44
31921;BMP280;66485;52.128;4.436;2023-07-29T04:13:04;100706.22;;;24.44
31921;BMP280;66485;52.128;4.436;2023-07-29T04:15:30;100702.56;;;24.47
31921;BMP280;66485;52.128;4.436;2023-07-29T04:17:55;100699.50;;;24.45
31921;BMP280;66485;52.128;4.436;2023-07-29T04:20:21;100706.22;;;24.44
31921;BMP280;66485;52.128;4.436;2023-07-29T04:22:46;100708.97;;;24.44
31921;BMP280;66485;52.128;4.436;2023-07-29T04:25:12;100707.28;;;24.46
31921;BMP280;66485;52.128;4.436;2023-07-29T04:27:38;100709.72;;;24.44
31921;BMP280;66485;52.128;4.436;2023-07-29T04:30:03;100709.72;;;24.44
31921;BMP280;66485;52.128;4.436;2023-07-29T04:32:29;100707.16;;;24.41
31921;BMP280;66485;52.128;4.436;2023-07-29T04:34:54;100725.25;;;24.47
31921;BMP280;66485;52.128;4.436;2023-07-29T04:37:20;100720.19;;;24.46
31921;BMP280;66485;52.128;4.436;2023-07-29T04:39:45;100723.25;;;24.48
31921;BMP280;66485;52.128;4.436;2023-07-29T04:42:11;100723.25;;;24.48
31921;BMP280;66485;52.128;4.436;2023-07-29T04:44:37;100719.44;;;24.45
31921;BMP280;66485;52.128;4.436;2023-07-29T04:47:02;100723.72;;;24.46
31921;BMP280;66485;52.128;4.436;2023-07-29T04:49:27;100716.09;;;24.41
31921;BMP280;66485;52.128;4.436;2023-07-29T04:51:53;100717.44;;;24.46
31921;BMP280;66485;52.128;4.436;2023-07-29T04:54:18;100724.31;;;24.41
31921;BMP280;66485;52.128;4.436;2023-07-29T04:56:46;100720.19;;;24.46
31921;BMP280;66485;52.128;4.436;2023-07-29T04:59:11;100717.63;;;24.42
31921;BMP280;66485;52.128;4.436;2023-07-29T05:01:38;100725.38;;;24.44
31921;BMP280;66485;52.128;4.436;2023-07-29T05:04:03;100725.06;;;24.42
31921;BMP280;66485;52.128;4.436;2023-07-29T05:06:29;100730.09;;;24.43
31921;BMP280;66485;52.128;4.436;2023-07-29T05:08:57;100720.66;;;24.44
31921;BMP280;66485;52.128;4.436;2023-07-29T05:11:23;100724.78;;;24.40
31921;BMP280;66485;52.128;4.436;2023-07-29T05:13:50;100724.47;;;24.47
31921;BMP280;66485;52.128;4.436;2023-07-29T05:16:15;100720.53;;;24.48
31921;BMP280;66485;52.128;4.436;2023-07-29T05:18:41;100720.53;;;24.48
31921;BMP280;66485;52.128;4.436;2023-07-29T05:21:06;100709.25;;;24.46
31921;BMP280;66485;52.128;4.436;2023-07-29T05:23:33;100708.34;;;24.49
31921;BMP280;66485;52.128;4.436;2023-07-29T05:25:58;100704.56;;;24.46
31921;BMP280;66485;52.128;4.436;2023-07-29T05:28:24;100709.84;;;24.50
31921;BMP280;66485;52.128;4.436;2023-07-29T05:30:49;100709.56;;;24.48
31921;BMP280;66485;52.128;4.436;2023-07-29T05:33:14;100718.06;;;24.50
31921;BMP280;66485;52.128;4.436;2023-07-29T05:35:40;100718.06;;;24.50
31921;BMP280;66485;52.128;4.436;2023-07-29T05:38:05;100717.78;;;24.48
31921;BMP280;66485;52.128;4.436;2023-07-29T05:40:33;100709.09;;;24.49
31921;BMP280;66485;52.128;4.436;2023-07-29T05:42:59;100710.78;;;24.47
31921;BMP280;66485;52.128;4.436;2023-07-29T05:45:24;100711.38;;;24.51
31921;BMP280;66485;52.128;4.436;2023-07-29T05:47:50;100711.38;;;24.51
31921;BMP280;66485;52.128;4.436;2023-07-29T05:50:15;100714.88;;;24.51
31921;BMP280;66485;52.128;4.436;2023-07-29T05:52:41;100714.88;;;24.51
31921;BMP280;66485;52.128;4.436;2023-07-29T05:55:06;100715.19;;;24.44
31921;BMP280;66485;52.128;4.436;2023-07-29T05:57:32;100717.31;;;24.49
31921;BMP280;66485;52.128;4.436;2023-07-29T05:59:57;100719.78;;;24.47
31921;BMP280;66485;52.128;4.436;2023-07-29T06:02:22;100720.53;;;24.48
31921;BMP280;66485;52.128;4.436;2023-07-29T06:04:48;100726.00;;;24.48
31921;BMP280;66485;52.128;4.436;2023-07-29T06:07:13;100722.34;;;24.42
31921;BMP280;66485;52.128;4.436;2023-07-29T06:09:39;100722.34;;;24.42
31921;BMP280;66485;52.128;4.436;2023-07-29T06:12:05;100726.88;;;24.45
31921;BMP280;66485;52.128;4.436;2023-07-29T06:14:31;100730.09;;;24.43
31921;BMP280;66485;52.128;4.436;2023-07-29T06:16:56;100722.81;;;24.40
31921;BMP280;66485;52.128;4.436;2023-07-29T06:19:21;100729.63;;;24.45
31921;BMP280;66485;52.128;4.436;2023-07-29T06:21:48;100731.47;;;24.48
31921;BMP280;66485;52.128;4.436;2023-07-29T06:24:13;100723.72;;;24.46
31921;BMP280;66485;52.128;4.436;2023-07-29T06:26:38;100723.72;;;24.46
31921;BMP280;66485;52.128;4.436;2023-07-29T06:29:04;100733.56;;;24.53
31921;BMP280;66485;52.128;4.436;2023-07-29T06:31:29;100725.97;;;24.57
31921;BMP280;66485;52.128;4.436;2023-07-29T06:33:55;100725.97;;;24.57
31921;BMP280;66485;52.128;4.436;2023-07-29T06:36:20;100731.53;;;24.62
31921;BMP280;66485;52.128;4.436;2023-07-29T06:38:45;100729.75;;;24.59
31921;BMP280;66485;52.128;4.436;2023-07-29T06:41:11;100729.75;;;24.59
31921;BMP280;66485;52.128;4.436;2023-07-29T06:43:36;100722.31;;;24.51
31921;BMP280;66485;52.128;4.436;2023-07-29T06:46:02;100731.00;;;24.58
31921;BMP280;66485;52.128;4.436;2023-07-29T06:48:27;100728.34;;;24.64
31921;BMP280;66485;52.128;4.436;2023-07-29T06:50:52;100732.03;;;24.61
31921;BMP280;66485;52.128;4.436;2023-07-29T06:53:20;100734.19;;;24.57
31921;BMP280;66485;52.128;4.436;2023-07-29T06:55:45;100727.75;;;24.60
31921;BMP280;66485;52.128;4.436;2023-07-29T06:58:11;100735.97;;;24.69
31921;BMP280;66485;52.128;4.436;2023-07-29T07:00:36;100734.25;;;24.72
31921;BMP280;66485;52.128;4.436;2023-07-29T07:03:02;100732.88;;;24.67
31921;BMP280;66485;52.128;4.436;2023-07-29T07:05:27;100734.09;;;24.75
31921;BMP280;66485;52.128;4.436;2023-07-29T07:07:52;100737.59;;;24.67
31921;BMP280;66485;52.128;4.436;2023-07-29T07:10:18;100739.91;;;24.68
31921;BMP280;66485;52.128;4.436;2023-07-29T07:12:43;100742.03;;;24.64
31921;BMP280;66485;52.128;4.436;2023-07-29T07:15:08;100739.31;;;24.64
31921;BMP280;66485;52.128;4.436;2023-07-29T07:17:34;100747.19;;;24.71
31921;BMP280;66485;52.128;4.436;2023-07-29T07:19:59;100747.19;;;24.71
31921;BMP280;66485;52.128;4.436;2023-07-29T07:22:25;100743.81;;;24.76
31921;BMP280;66485;52.128;4.436;2023-07-29T07:24:50;100743.81;;;24.76
31921;BMP280;66485;52.128;4.436;2023-07-29T07:27:15;100750.97;;;24.83
31921;BMP280;66485;52.128;4.436;2023-07-29T07:29:41;100745.00;;;24.84
31921;BMP280;66485;52.128;4.436;2023-07-29T07:32:06;100745.00;;;24.84
31921;BMP280;66485;52.128;4.436;2023-07-29T07:34:31;100763.00;;;24.76
31921;BMP280;66485;52.128;4.436;2023-07-29T07:36:58;100749.66;;;24.69
31921;BMP280;66485;52.128;4.436;2023-07-29T07:39:23;100759.09;;;24.68
31921;BMP280;66485;52.128;4.436;2023-07-29T07:41:49;100759.09;;;24.68
31921;BMP280;66485;52.128;4.436;2023-07-29T07:44:15;100755.50;;;24.77
31921;BMP280;66485;52.128;4.436;2023-07-29T07:46:42;100753.53;;;24.77
31921;BMP280;66485;52.128;4.436;2023-07-29T07:49:08;100766.09;;;24.69
31921;BMP280;66485;52.128;4.436;2023-07-29T07:51:33;100766.09;;;24.69
31921;BMP280;66485;52.128;4.436;2023-07-29T07:53:58;100764.16;;;24.84
31921;BMP280;66485;52.128;4.436;2023-07-29T07:56:24;100756.25;;;24.86
31921;BMP280;66485;52.128;4.436;2023-07-29T07:58:49;100768.88;;;24.84
31921;BMP280;66485;52.128;4.436;2023-07-29T08:01:14;100768.09;;;24.92
31921;BMP280;66485;52.128;4.436;2023-07-29T08:03:40;100768.88;;;24.93
31921;BMP280;66485;52.128;4.436;2023-07-29T08:06:05;100777.19;;;24.98
31921;BMP280;66485;52.128;4.436;2023-07-29T08:08:30;100777.19;;;24.98
31921;BMP280;66485;52.128;4.436;2023-07-29T08:10:57;100776.41;;;25.07
31921;BMP280;66485;52.128;4.436;2023-07-29T08:13:23;100778.50;;;25.12
31921;BMP280;66485;52.128;4.436;2023-07-29T08:15:51;100778.50;;;25.12
31921;BMP280;66485;52.128;4.436;2023-07-29T08:18:17;100778.56;;;25.03
31921;BMP280;66485;52.128;4.436;2023-07-29T08:20:55;100792.50;;;25.14
31921;BMP280;66485;52.128;4.436;2023-07-29T08:23:24;100789.94;;;25.11
31921;BMP280;66485;52.128;4.436;2023-07-29T08:25:52;100783.03;;;25.15
31921;BMP280;66485;52.128;4.436;2023-07-29T08:28:18;100783.03;;;25.15
31921;BMP280;66485;52.128;4.436;2023-07-29T08:30:43;100803.88;;;25.22
31921;BMP280;66485;52.128;4.436;2023-07-29T08:33:08;100803.88;;;25.22
31921;BMP280;66485;52.128;4.436;2023-07-29T08:35:34;100785.75;;;25.24
31921;BMP280;66485;52.128;4.436;2023-07-29T08:37:59;100793.97;;;25.24
31921;BMP280;66485;52.128;4.436;2023-07-29T08:40:29;100777.91;;;25.32
31921;BMP280;66485;52.128;4.436;2023-07-29T08:42:56;100784.81;;;25.27
31921;BMP280;66485;52.128;4.436;2023-07-29T08:45:24;100784.38;;;25.20
31921;BMP280;66485;52.128;4.436;2023-07-29T08:47:50;100791.69;;;25.23
31921;BMP280;66485;52.128;4.436;2023-07-29T08:50:18;100794.88;;;25.21
31921;BMP280;66485;52.128;4.436;2023-07-29T08:52:44;100794.88;;;25.21
31921;BMP280;66485;52.128;4.436;2023-07-29T08:55:10;100799.75;;;25.26
31921;BMP280;66485;52.128;4.436;2023-07-29T08:57:36;100804.34;;;25.20
31921;BMP280;66485;52.128;4.436;2023-07-29T09:00:02;100811.22;;;25.16
31921;BMP280;66485;52.128;4.436;2023-07-29T09:02:28;100803.88;;;25.22
31921;BMP280;66485;52.128;4.436;2023-07-29T09:04:54;100803.88;;;25.22
31921;BMP280;66485;52.128;4.436;2023-07-29T09:07:19;100793.69;;;25.22
31921;BMP280;66485;52.128;4.436;2023-07-29T09:09:45;100799.56;;;25.30
31921;BMP280;66485;52.128;4.436;2023-07-29T09:12:11;100793.78;;;25.28
31921;BMP280;66485;52.128;4.436;2023-07-29T09:14:37;100793.78;;;25.28
31921;BMP280;66485;52.128;4.436;2023-07-29T09:17:02;100799.56;;;25.30
31921;BMP280;66485;52.128;4.436;2023-07-29T09:19:27;100788.59;;;25.30
31921;BMP280;66485;52.128;4.436;2023-07-29T09:21:53;100788.59;;;25.30
31921;BMP280;66485;52.128;4.436;2023-07-29T09:24:20;100787.50;;;25.36
31921;BMP280;66485;52.128;4.436;2023-07-29T09:26:49;100787.50;;;25.36
31921;BMP280;66485;52.128;4.436;2023-07-29T09:29:15;100804.13;;;25.33
31921;BMP280;66485;52.128;4.436;2023-07-29T09:31:41;100806.97;;;25.38
31921;BMP280;66485;52.128;4.436;2023-07-29T09:34:06;100814.16;;;25.36
31921;BMP280;66485;52.128;4.436;2023-07-29T09:36:33;100800.00;;;25.28
31921;BMP280;66485;52.128;4.436;2023-07-29T09:38:59;100800.00;;;25.28
31921;BMP280;66485;52.128;4.436;2023-07-29T09:41:26;100794.69;;;25.34
31921;BMP280;66485;52.128;4.436;2023-07-29T09:44:11;100785.84;;;25.30
31921;BMP280;66485;52.128;4.436;2023-07-29T09:46:37;100778.81;;;25.38
31921;BMP280;66485;52.128;4.436;2023-07-29T09:49:07;100780.59;;;25.41
31921;BMP280;66485;52.128;4.436;2023-07-29T09:51:37;100780.59;;;25.41
31921;BMP280;66485;52.128;4.436;2023-07-29T09:54:04;100791.34;;;25.30
31921;BMP280;66485;52.128;4.436;2023-07-29T09:56:30;100795.59;;;25.31
31921;BMP280;66485;52.128;4.436;2023-07-29T09:58:56;100794.06;;;25.30
31921;BMP280;66485;52.128;4.436;2023-07-29T10:01:22;100794.06;;;25.30
31921;BMP280;66485;52.128;4.436;2023-07-29T10:03:48;100785.22;;;25.35
31921;BMP280;66485;52.128;4.436;2023-07-29T10:06:14;100784.50;;;25.25
31921;BMP280;66485;52.128;4.436;2023-07-29T10:08:40;100791.97;;;25.25
31921;BMP280;66485;52.128;4.436;2023-07-29T10:11:06;100796.72;;;25.24
31921;BMP280;66485;52.128;4.436;2023-07-29T10:13:33;100796.72;;;25.24
31921;BMP280;66485;52.128;4.436;2023-07-29T10:15:59;100796.56;;;25.19
31921;BMP280;66485;52.128;4.436;2023-07-29T10:18:27;100799.03;;;25.17
31921;BMP280;66485;52.128;4.436;2023-07-29T10:20:54;100819.72;;;25.18
31921;BMP280;66485;52.128;4.436;2023-07-29T10:23:22;100819.72;;;25.18
31921;BMP280;66485;52.128;4.436;2023-07-29T10:26:01;100826.06;;;25.33
31921;BMP280;66485;52.128;4.436;2023-07-29T10:28:29;100817.38;;;25.34
31921;BMP280;66485;52.128;4.436;2023-07-29T10:30:56;100817.38;;;25.34
31921;BMP280;66485;52.128;4.436;2023-07-29T10:33:21;100813.22;;;25.39
31921;BMP280;66485;52.128;4.436;2023-07-29T10:35:47;100816.81;;;25.45
31921;BMP280;66485;52.128;4.436;2023-07-29T10:38:12;100810.28;;;25.42
31921;BMP280;66485;52.128;4.436;2023-07-29T10:40:51;100810.28;;;25.42
31921;BMP280;66485;52.128;4.436;2023-07-29T10:45:50;100806.63;;;25.45
31921;BMP280;66485;52.128;4.436;2023-07-29T10:51:36;100805.56;;;25.43
31921;BMP280;66485;52.128;4.436;2023-07-29T10:54:03;100793.06;;;25.42
31921;BMP280;66485;52.128;4.436;2023-07-29T10:56:30;100803.75;;;25.40
31921;BMP280;66485;52.128;4.436;2023-07-29T10:58:56;100803.75;;;25.40
31921;BMP280;66485;52.128;4.436;2023-07-29T11:01:27;100794.50;;;25.37
31921;BMP280;66485;52.128;4.436;2023-07-29T11:10:00;100802.22;;;25.39
31921;BMP280;66485;52.128;4.436;2023-07-29T11:17:34;100802.56;;;25.32
31921;BMP280;66485;52.128;4.436;2023-07-29T11:20:01;100802.56;;;25.32
31921;BMP280;66485;52.128;4.436;2023-07-29T11:22:28;100793.16;;;25.33
31921;BMP280;66485;52.128;4.436;2023-07-29T11:24:54;100791.59;;;25.32
31921;BMP280;66485;52.128;4.436;2023-07-29T11:27:19;100801.06;;;25.31
31921;BMP280;66485;52.128;4.436;2023-07-29T11:29:44;100799.41;;;25.33
31921;BMP280;66485;52.128;4.436;2023-07-29T11:32:10;100810.66;;;25.35
31921;BMP280;66485;52.128;4.436;2023-07-29T11:34:35;100814.03;;;25.30
31921;BMP280;66485;52.128;4.436;2023-07-29T11:37:00;100809.88;;;25.35
31921;BMP280;66485;52.128;4.436;2023-07-29T11:39:26;100816.53;;;25.43
31921;BMP280;66485;52.128;4.436;2023-07-29T11:41:51;100816.19;;;25.50
31921;BMP280;66485;52.128;4.436;2023-07-29T11:44:17;100815.16;;;25.47
31921;BMP280;66485;52.128;4.436;2023-07-29T11:46:43;100824.59;;;25.46
31921;BMP280;66485;52.128;4.436;2023-07-29T11:49:08;100819.81;;;25.56
31921;BMP280;66485;52.128;4.436;2023-07-29T11:51:34;100819.81;;;25.56
31921;BMP280;66485;52.128;4.436;2023-07-29T11:54:00;100804.97;;;25.63
31921;BMP280;66485;52.128;4.436;2023-07-29T11:56:25;100819.38;;;25.72
31921;BMP280;66485;52.128;4.436;2023-07-29T11:58:51;100819.38;;;25.72
31921;BMP280;66485;52.128;4.436;2023-07-29T12:01:17;100813.03;;;25.66
31921;BMP280;66485;52.128;4.436;2023-07-29T12:03:42;100804.38;;;25.59
31921;BMP280;66485;52.128;4.436;2023-07-29T12:06:08;100811.22;;;25.63
31921;BMP280;66485;52.128;4.436;2023-07-29T12:08:34;100812.44;;;25.62
31921;BMP280;66485;52.128;4.436;2023-07-29T12:11:00;100812.44;;;25.62
31921;BMP280;66485;52.128;4.436;2023-07-29T12:13:25;100812.56;;;25.68
31921;BMP280;66485;52.128;4.436;2023-07-29T12:15:50;100812.56;;;25.68
31921;BMP280;66485;52.128;4.436;2023-07-29T12:18:16;100804.03;;;25.66
31921;BMP280;66485;52.128;4.436;2023-07-29T12:20:41;100801.78;;;25.79
31921;BMP280;66485;52.128;4.436;2023-07-29T12:23:06;100795.97;;;26.01
31921;BMP280;66485;52.128;4.436;2023-07-29T12:25:33;100797.69;;;25.98
31921;BMP280;66485;52.128;4.436;2023-07-29T12:28:03;100809.69;;;26.01
31921;BMP280;66485;52.128;4.436;2023-07-29T12:30:28;100808.19;;;26.14
31921;BMP280;66485;52.128;4.436;2023-07-29T12:32:54;100802.31;;;26.07
31921;BMP280;66485;52.128;4.436;2023-07-29T12:35:19;100803.53;;;26.06
31921;BMP280;66485;52.128;4.436;2023-07-29T12:37:44;100805.56;;;26.20
31921;BMP280;66485;52.128;4.436;2023-07-29T12:40:26;100797.13;;;26.09
31921;BMP280;66485;52.128;4.436;2023-07-29T12:42:53;100801.53;;;26.06
31921;BMP280;66485;52.128;4.436;2023-07-29T12:45:19;100815.94;;;26.01
31921;BMP280;66485;52.128;4.436;2023-07-29T12:47:44;100809.41;;;25.99
31921;BMP280;66485;52.128;4.436;2023-07-29T12:50:10;100805.25;;;26.03
31921;BMP280;66485;52.128;4.436;2023-07-29T12:52:35;100805.25;;;26.03
31921;BMP280;66485;52.128;4.436;2023-07-29T12:55:00;100799.84;;;26.09
31921;BMP280;66485;52.128;4.436;2023-07-29T12:57:25;100800.78;;;26.06
31921;BMP280;66485;52.128;4.436;2023-07-29T12:59:51;100800.78;;;26.06
31921;BMP280;66485;52.128;4.436;2023-07-29T13:02:16;100795.59;;;26.22
31921;BMP280;66485;52.128;4.436;2023-07-29T13:04:41;100800.25;;;26.31
31921;BMP280;66485;52.128;4.436;2023-07-29T13:07:07;100800.25;;;26.31
31921;BMP280;66485;52.128;4.436;2023-07-29T13:09:32;100811.97;;;26.31
31921;BMP280;66485;52.128;4.436;2023-07-29T13:11:57;100812.28;;;26.33
31921;BMP280;66485;52.128;4.436;2023-07-29T13:14:23;100817.28;;;26.35
31921;BMP280;66485;52.128;4.436;2023-07-29T13:16:48;100801.19;;;26.43
31921;BMP280;66485;52.128;4.436;2023-07-29T13:19:13;100807.13;;;26.56
31921;BMP280;66485;52.128;4.436;2023-07-29T13:21:39;100801.94;;;26.43
31921;BMP280;66485;52.128;4.436;2023-07-29T13:24:04;100805.81;;;26.51
31921;BMP280;66485;52.128;4.436;2023-07-29T13:26:29;100805.81;;;26.51
31921;BMP280;66485;52.128;4.436;2023-07-29T13:28:55;100799.84;;;26.53
31921;BMP280;66485;52.128;4.436;2023-07-29T13:31:21;100798.19;;;26.61
31921;BMP280;66485;52.128;4.436;2023-07-29T13:33:46;100808.22;;;26.78
31921;BMP280;66485;52.128;4.436;2023-07-29T13:36:11;100806.59;;;26.87
31921;BMP280;66485;52.128;4.436;2023-07-29T13:38:37;100795.56;;;26.66
31921;BMP280;66485;52.128;4.436;2023-07-29T13:41:02;100788.94;;;26.73
31921;BMP280;66485;52.128;4.436;2023-07-29T13:43:28;100794.72;;;26.60
31921;BMP280;66485;52.128;4.436;2023-07-29T13:45:53;100788.78;;;26.82
31921;BMP280;66485;52.128;4.436;2023-07-29T13:48:19;100798.19;;;26.75
31921;BMP280;66485;52.128;4.436;2023-07-29T13:50:45;100800.84;;;26.85
31921;BMP280;66485;52.128;4.436;2023-07-29T13:53:10;100797.19;;;26.73
31921;BMP280;66485;52.128;4.436;2023-07-29T13:55:36;100803.97;;;26.77
31921;BMP280;66485;52.128;4.436;2023-07-29T13:58:01;100806.44;;;26.75
31921;BMP280;66485;52.128;4.436;2023-07-29T14:00:27;100806.44;;;26.75
31921;BMP280;66485;52.128;4.436;2023-07-29T14:02:52;100808.44;;;26.75
31921;BMP280;66485;52.128;4.436;2023-07-29T14:05:17;100814.81;;;27.01
31921;BMP280;66485;52.128;4.436;2023-07-29T14:07:43;100803.91;;;27.07
31921;BMP280;66485;52.128;4.436;2023-07-29T14:10:08;100815.53;;;27.16
31921;BMP280;66485;52.128;4.436;2023-07-29T14:12:34;100825.56;;;27.19
31921;BMP280;66485;52.128;4.436;2023-07-29T14:14:59;100816.47;;;27.13
31921;BMP280;66485;52.128;4.436;2023-07-29T14:17:25;100815.88;;;27.24